sensor_id;sensor_type;location;lat;lon;timestamp;temperature;humidity
48912;DHT22;34722;52.108;5.044;2023-06-14T00:01:01;18.00;1.00
48912;DHT22;34722;52.108;5.044;2023-06-14T00:03:28;17.90;1.00
48912;DHT22;34722;52.108;5.044;2023-06-14T00:05:54;17.90;1.00
48912;DHT22;34722;52.108;5.044;2023-06-14T00:08:20;17.90;1.00
48912;DHT22;34722;52.108;5.044;2023-06-14T00:10:48;17.80;1.00
48912;DHT22;34722;52.108;5.044;2023-06-14T00:13:13;17.80;1.00
48912;DHT22;34722;52.108;5.044;2023-06-14T00:15:39;17.80;1.00
48912;DHT22;34722;52.108;5.044;2023-06-14T00:18:05;17.80;1.00
48912;DHT22;34722;52.108;5.044;2023-06-14T00:20:33;17.70;1.00
48912;DHT22;34722;52.108;5.044;2023-06-14T00:23:02;17.70;1.00
48912;DHT22;34722;52.108;5.044;2023-06-14T00:25:28;17.70;1.00
48912;DHT22;34722;52.108;5.044;2023-06-14T00:27:57;17.70;1.00
48912;DHT22;34722;52.108;5.044;2023-06-14T00:30:24;17.60;1.00
48912;DHT22;34722;52.108;5.044;2023-06-14T00:32:50;17.60;1.00
48912;DHT22;34722;52.108;5.044;2023-06-14T00:35:16;17.60;1.00
48912;DHT22;34722;52.108;5.044;2023-06-14T00:37:45;17.60;1.00
48912;DHT22;34722;52.108;5.044;2023-06-14T00:40:11;17.50;1.00
48912;DHT22;34722;52.108;5.044;2023-06-14T00:42:37;17.50;1.00
48912;DHT22;34722;52.108;5.044;2023-06-14T00:45:03;17.50;1.00
48912;DHT22;34722;52.108;5.044;2023-06-14T00:47:28;17.50;1.00
48912;DHT22;34722;52.108;5.044;2023-06-14T00:49:55;17.40;1.00
48912;DHT22;34722;52.108;5.044;2023-06-14T00:52:22;17.40;1.00
48912;DHT22;34722;52.108;5.044;2023-06-14T00:54:49;17.30;1.00
48912;DHT22;34722;52.108;5.044;2023-06-14T00:57:15;17.30;1.00
48912;DHT22;34722;52.108;5.044;2023-06-14T00:59:46;17.30;1.00
48912;DHT22;34722;52.108;5.044;2023-06-14T01:02:12;17.20;1.00
48912;DHT22;34722;52.108;5.044;2023-06-14T01:04:40;17.20;1.00
48912;DHT22;34722;52.108;5.044;2023-06-14T01:10:29;17.20;1.00
48912;DHT22;34722;52.108;5.044;2023-06-14T01:13:27;17.20;1.00
48912;DHT22;34722;52.108;5.044;2023-06-14T01:15:55;17.10;1.00
48912;DHT22;34722;52.108;5.044;2023-06-14T01:18:22;17.10;10.30
48912;DHT22;34722;52.108;5.044;2023-06-14T01:20:49;17.10;2.20
48912;DHT22;34722;52.108;5.044;2023-06-14T01:23:19;17.10;11.90
48912;DHT22;34722;52.108;5.044;2023-06-14T01:25:46;17.00;22.90
48912;DHT22;34722;52.108;5.044;2023-06-14T01:28:12;16.90;22.40
48912;DHT22;34722;52.108;5.044;2023-06-14T01:30:41;16.90;28.30
48912;DHT22;34722;52.108;5.044;2023-06-14T01:33:15;16.90;35.90
48912;DHT22;34722;52.108;5.044;2023-06-14T01:35:45;16.90;33.20
48912;DHT22;34722;52.108;5.044;2023-06-14T01:38:12;16.90;37.80
48912;DHT22;34722;52.108;5.044;2023-06-14T01:40:39;16.90;37.40
48912;DHT22;34722;52.108;5.044;2023-06-14T01:43:09;16.80;42.60
48912;DHT22;34722;52.108;5.044;2023-06-14T01:45:36;16.80;52.70
48912;DHT22;34722;52.108;5.044;2023-06-14T01:48:02;16.70;47.50
48912;DHT22;34722;52.108;5.044;2023-06-14T01:50:30;16.70;51.30
48912;DHT22;34722;52.108;5.044;2023-06-14T01:52:56;16.70;65.40
48912;DHT22;34722;52.108;5.044;2023-06-14T01:55:21;16.60;70.40
48912;DHT22;34722;52.108;5.044;2023-06-14T01:57:47;16.60;77.50
48912;DHT22;34722;52.108;5.044;2023-06-14T02:00:14;16.60;68.70
48912;DHT22;34722;52.108;5.044;2023-06-14T02:02:40;16.60;76.50
48912;DHT22;34722;52.108;5.044;2023-06-14T02:05:06;16.60;65.90
48912;DHT22;34722;52.108;5.044;2023-06-14T02:07:33;16.60;51.70
48912;DHT22;34722;52.108;5.044;2023-06-14T02:09:59;16.60;40.00
48912;DHT22;34722;52.108;5.044;2023-06-14T02:12:24;16.60;35.40
48912;DHT22;34722;52.108;5.044;2023-06-14T02:14:50;16.60;22.90
48912;DHT22;34722;52.108;5.044;2023-06-14T02:17:16;16.60;21.50
48912;DHT22;34722;52.108;5.044;2023-06-14T02:19:42;16.60;19.40
48912;DHT22;34722;52.108;5.044;2023-06-14T02:22:08;16.60;16.10
48912;DHT22;34722;52.108;5.044;2023-06-14T02:24:34;16.60;8.60
48912;DHT22;34722;52.108;5.044;2023-06-14T02:27:01;16.70;3.50
48912;DHT22;34722;52.108;5.044;2023-06-14T02:29:27;16.60;4.00
48912;DHT22;34722;52.108;5.044;2023-06-14T02:31:52;16.60;1.00
48912;DHT22;34722;52.108;5.044;2023-06-14T02:34:18;16.60;1.00
48912;DHT22;34722;52.108;5.044;2023-06-14T02:36:45;16.50;1.00
48912;DHT22;34722;52.108;5.044;2023-06-14T02:39:11;16.40;6.30
48912;DHT22;34722;52.108;5.044;2023-06-14T02:41:37;16.40;7.10
48912;DHT22;34722;52.108;5.044;2023-06-14T02:44:03;16.40;20.10
48912;DHT22;34722;52.108;5.044;2023-06-14T02:46:28;16.40;16.90
48912;DHT22;34722;52.108;5.044;2023-06-14T02:48:54;16.30;19.70
48912;DHT22;34722;52.108;5.044;2023-06-14T02:51:19;16.30;28.80
48912;DHT22;34722;52.108;5.044;2023-06-14T02:53:45;16.20;33.30
48912;DHT22;34722;52.108;5.044;2023-06-14T02:56:10;16.20;39.90
48912;DHT22;34722;52.108;5.044;2023-06-14T02:58:37;16.20;56.00
48912;DHT22;34722;52.108;5.044;2023-06-14T03:01:07;16.20;74.00
48912;DHT22;34722;52.108;5.044;2023-06-14T03:03:33;16.10;87.20
48912;DHT22;34722;52.108;5.044;2023-06-14T03:05:59;16.10;88.60
48912;DHT22;34722;52.108;5.044;2023-06-14T03:08:30;16.10;94.30
48912;DHT22;34722;52.108;5.044;2023-06-14T03:11:03;16.10;99.90
48912;DHT22;34722;52.108;5.044;2023-06-14T03:13:30;16.10;99.90
48912;DHT22;34722;52.108;5.044;2023-06-14T03:15:57;16.00;99.90
48912;DHT22;34722;52.108;5.044;2023-06-14T03:18:23;16.00;99.90
48912;DHT22;34722;52.108;5.044;2023-06-14T03:20:49;15.90;99.90
48912;DHT22;34722;52.108;5.044;2023-06-14T03:23:16;15.90;99.90
48912;DHT22;34722;52.108;5.044;2023-06-14T03:25:41;16.00;99.90
48912;DHT22;34722;52.108;5.044;2023-06-14T03:28:07;16.00;99.90
48912;DHT22;34722;52.108;5.044;2023-06-14T03:30:33;16.00;99.90
48912;DHT22;34722;52.108;5.044;2023-06-14T03:32:59;16.00;99.90
48912;DHT22;34722;52.108;5.044;2023-06-14T03:35:26;15.90;99.90
48912;DHT22;34722;52.108;5.044;2023-06-14T03:37:52;15.80;99.90
48912;DHT22;34722;52.108;5.044;2023-06-14T03:40:18;15.80;99.90
48912;DHT22;34722;52.108;5.044;2023-06-14T03:42:45;15.80;99.90
48912;DHT22;34722;52.108;5.044;2023-06-14T03:45:11;15.70;99.90
48912;DHT22;34722;52.108;5.044;2023-06-14T03:47:36;15.70;99.90
48912;DHT22;34722;52.108;5.044;2023-06-14T03:50:05;15.60;99.90
48912;DHT22;34722;52.108;5.044;2023-06-14T03:52:31;15.50;1.00
48912;DHT22;34722;52.108;5.044;2023-06-14T03:54:58;15.60;1.00
48912;DHT22;34722;52.108;5.044;2023-06-14T03:57:25;15.60;1.00
48912;DHT22;34722;52.108;5.044;2023-06-14T03:59:51;15.60;1.00
48912;DHT22;34722;52.108;5.044;2023-06-14T04:02:17;15.60;1.00
48912;DHT22;34722;52.108;5.044;2023-06-14T04:04:44;15.60;1.00
48912;DHT22;34722;52.108;5.044;2023-06-14T04:07:14;15.60;1.00
48912;DHT22;34722;52.108;5.044;2023-06-14T04:09:40;15.60;1.00
48912;DHT22;34722;52.108;5.044;2023-06-14T04:12:07;15.60;1.00
48912;DHT22;34722;52.108;5.044;2023-06-14T04:14:34;15.60;19.90
48912;DHT22;34722;52.108;5.044;2023-06-14T04:17:00;15.80;1.00
48912;DHT22;34722;52.108;5.044;2023-06-14T04:19:26;16.30;1.00
48912;DHT22;34722;52.108;5.044;2023-06-14T04:21:52;16.60;1.00
48912;DHT22;34722;52.108;5.044;2023-06-14T04:24:18;16.70;1.00
48912;DHT22;34722;52.108;5.044;2023-06-14T04:26:47;16.60;1.00
48912;DHT22;34722;52.108;5.044;2023-06-14T04:29:14;16.80;1.00
48912;DHT22;34722;52.108;5.044;2023-06-14T04:31:41;17.10;99.90
48912;DHT22;34722;52.108;5.044;2023-06-14T04:34:07;17.30;99.90
48912;DHT22;34722;52.108;5.044;2023-06-14T04:36:34;17.20;99.90
48912;DHT22;34722;52.108;5.044;2023-06-14T04:39:01;16.90;99.90
48912;DHT22;34722;52.108;5.044;2023-06-14T04:41:28;16.60;99.90
48912;DHT22;34722;52.108;5.044;2023-06-14T04:44:00;16.50;99.90
48912;DHT22;34722;52.108;5.044;2023-06-14T04:46:27;16.40;99.90
48912;DHT22;34722;52.108;5.044;2023-06-14T04:48:54;16.30;1.00
48912;DHT22;34722;52.108;5.044;2023-06-14T04:51:20;16.30;1.00
48912;DHT22;34722;52.108;5.044;2023-06-14T04:53:47;16.20;1.00
48912;DHT22;34722;52.108;5.044;2023-06-14T04:56:15;16.20;1.00
48912;DHT22;34722;52.108;5.044;2023-06-14T04:58:42;16.20;1.00
48912;DHT22;34722;52.108;5.044;2023-06-14T05:01:09;16.30;1.00
48912;DHT22;34722;52.108;5.044;2023-06-14T05:03:34;16.40;1.00
48912;DHT22;34722;52.108;5.044;2023-06-14T05:06:00;16.40;1.00
48912;DHT22;34722;52.108;5.044;2023-06-14T05:08:26;16.50;1.00
48912;DHT22;34722;52.108;5.044;2023-06-14T05:10:52;16.50;1.00
48912;DHT22;34722;52.108;5.044;2023-06-14T05:13:18;16.60;1.00
48912;DHT22;34722;52.108;5.044;2023-06-14T05:15:44;16.60;1.00
48912;DHT22;34722;52.108;5.044;2023-06-14T05:18:09;16.60;1.00
48912;DHT22;34722;52.108;5.044;2023-06-14T05:20:35;16.70;1.00
48912;DHT22;34722;52.108;5.044;2023-06-14T05:23:02;16.80;1.00
48912;DHT22;34722;52.108;5.044;2023-06-14T05:25:28;16.80;99.90
48912;DHT22;34722;52.108;5.044;2023-06-14T05:27:54;17.00;99.90
48912;DHT22;34722;52.108;5.044;2023-06-14T05:30:20;17.10;99.90
48912;DHT22;34722;52.108;5.044;2023-06-14T05:32:46;17.20;99.90
48912;DHT22;34722;52.108;5.044;2023-06-14T05:35:11;17.30;99.90
48912;DHT22;34722;52.108;5.044;2023-06-14T05:37:37;17.50;99.90
48912;DHT22;34722;52.108;5.044;2023-06-14T05:40:04;17.60;99.90
48912;DHT22;34722;52.108;5.044;2023-06-14T05:42:34;17.70;99.90
48912;DHT22;34722;52.108;5.044;2023-06-14T05:44:59;17.90;99.90
48912;DHT22;34722;52.108;5.044;2023-06-14T05:47:31;18.40;94.20
48912;DHT22;34722;52.108;5.044;2023-06-14T05:49:57;19.60;1.00
48912;DHT22;34722;52.108;5.044;2023-06-14T05:52:23;21.20;1.00
48912;DHT22;34722;52.108;5.044;2023-06-14T05:54:48;22.30;1.00
48912;DHT22;34722;52.108;5.044;2023-06-14T05:57:14;22.90;99.90
48912;DHT22;34722;52.108;5.044;2023-06-14T05:59:40;23.40;99.90
48912;DHT22;34722;52.108;5.044;2023-06-14T06:02:06;24.50;99.90
48912;DHT22;34722;52.108;5.044;2023-06-14T06:04:31;24.40;99.90
48912;DHT22;34722;52.108;5.044;2023-06-14T06:06:57;23.70;99.90
48912;DHT22;34722;52.108;5.044;2023-06-14T06:09:22;24.10;99.90
48912;DHT22;34722;52.108;5.044;2023-06-14T06:11:48;23.70;99.90
48912;DHT22;34722;52.108;5.044;2023-06-14T06:14:14;23.40;99.90
48912;DHT22;34722;52.108;5.044;2023-06-14T06:16:40;24.10;99.90
48912;DHT22;34722;52.108;5.044;2023-06-14T06:19:05;25.20;99.90
48912;DHT22;34722;52.108;5.044;2023-06-14T06:21:31;25.70;99.90
48912;DHT22;34722;52.108;5.044;2023-06-14T06:23:57;26.10;99.90
48912;DHT22;34722;52.108;5.044;2023-06-14T06:26:22;26.10;99.90
48912;DHT22;34722;52.108;5.044;2023-06-14T06:28:48;26.70;99.90
48912;DHT22;34722;52.108;5.044;2023-06-14T06:31:14;26.10;99.90
48912;DHT22;34722;52.108;5.044;2023-06-14T06:33:40;26.00;99.90
48912;DHT22;34722;52.108;5.044;2023-06-14T06:36:06;26.20;99.90
48912;DHT22;34722;52.108;5.044;2023-06-14T06:38:31;26.40;99.90
48912;DHT22;34722;52.108;5.044;2023-06-14T06:40:57;26.30;92.40
48912;DHT22;34722;52.108;5.044;2023-06-14T06:43:23;25.90;68.50
48912;DHT22;34722;52.108;5.044;2023-06-14T06:45:48;25.50;51.70
48912;DHT22;34722;52.108;5.044;2023-06-14T06:48:14;26.00;50.90
48912;DHT22;34722;52.108;5.044;2023-06-14T06:50:41;26.50;50.90
48912;DHT22;34722;52.108;5.044;2023-06-14T06:53:06;25.70;31.30
48912;DHT22;34722;52.108;5.044;2023-06-14T06:55:32;26.20;30.90
48912;DHT22;34722;52.108;5.044;2023-06-14T06:57:58;26.10;24.10
48912;DHT22;34722;52.108;5.044;2023-06-14T07:00:25;26.70;23.80
48912;DHT22;34722;52.108;5.044;2023-06-14T07:02:50;26.60;17.40
48912;DHT22;34722;52.108;5.044;2023-06-14T07:05:16;26.70;11.80
48912;DHT22;34722;52.108;5.044;2023-06-14T07:07:42;26.60;7.00
48912;DHT22;34722;52.108;5.044;2023-06-14T07:10:07;26.90;6.50
48912;DHT22;34722;52.108;5.044;2023-06-14T07:12:33;27.40;7.90
48912;DHT22;34722;52.108;5.044;2023-06-14T07:14:59;28.00;7.40
48912;DHT22;34722;52.108;5.044;2023-06-14T07:17:25;27.20;1.00
48912;DHT22;34722;52.108;5.044;2023-06-14T07:19:51;27.70;1.00
48912;DHT22;34722;52.108;5.044;2023-06-14T07:22:17;28.30;1.00
48912;DHT22;34722;52.108;5.044;2023-06-14T07:24:43;28.60;1.00
48912;DHT22;34722;52.108;5.044;2023-06-14T07:27:09;28.60;1.00
48912;DHT22;34722;52.108;5.044;2023-06-14T07:29:35;28.30;1.00
48912;DHT22;34722;52.108;5.044;2023-06-14T07:32:01;28.60;1.00
48912;DHT22;34722;52.108;5.044;2023-06-14T07:34:26;28.40;1.00
48912;DHT22;34722;52.108;5.044;2023-06-14T07:36:52;29.40;1.00
48912;DHT22;34722;52.108;5.044;2023-06-14T07:39:19;29.20;1.00
48912;DHT22;34722;52.108;5.044;2023-06-14T07:41:45;28.90;1.00
48912;DHT22;34722;52.108;5.044;2023-06-14T07:44:10;27.70;1.00
48912;DHT22;34722;52.108;5.044;2023-06-14T07:46:37;27.80;1.00
48912;DHT22;34722;52.108;5.044;2023-06-14T07:49:03;28.80;1.00
48912;DHT22;34722;52.108;5.044;2023-06-14T07:51:29;29.00;1.00
48912;DHT22;34722;52.108;5.044;2023-06-14T07:53:54;29.00;1.00
48912;DHT22;34722;52.108;5.044;2023-06-14T07:56:20;28.80;1.00
48912;DHT22;34722;52.108;5.044;2023-06-14T07:58:46;29.30;1.00
48912;DHT22;34722;52.108;5.044;2023-06-14T08:01:12;29.50;1.00
48912;DHT22;34722;52.108;5.044;2023-06-14T08:03:38;29.60;1.00
48912;DHT22;34722;52.108;5.044;2023-06-14T08:06:06;29.80;1.00
48912;DHT22;34722;52.108;5.044;2023-06-14T08:11:09;29.50;1.00
48912;DHT22;34722;52.108;5.044;2023-06-14T08:13:35;29.90;1.00
48912;DHT22;34722;52.108;5.044;2023-06-14T08:16:01;29.90;1.00
48912;DHT22;34722;52.108;5.044;2023-06-14T08:18:31;29.90;1.00
48912;DHT22;34722;52.108;5.044;2023-06-14T08:20:57;29.90;1.00
48912;DHT22;34722;52.108;5.044;2023-06-14T08:23:23;30.10;1.00
48912;DHT22;34722;52.108;5.044;2023-06-14T08:25:49;31.10;1.00
48912;DHT22;34722;52.108;5.044;2023-06-14T08:28:18;30.70;1.00
48912;DHT22;34722;52.108;5.044;2023-06-14T08:30:44;29.90;1.00
48912;DHT22;34722;52.108;5.044;2023-06-14T08:33:10;29.70;1.00
48912;DHT22;34722;52.108;5.044;2023-06-14T08:35:36;28.90;1.00
48912;DHT22;34722;52.108;5.044;2023-06-14T08:38:10;29.50;1.00
48912;DHT22;34722;52.108;5.044;2023-06-14T08:40:37;29.50;1.00
48912;DHT22;34722;52.108;5.044;2023-06-14T08:43:04;29.60;1.00
48912;DHT22;34722;52.108;5.044;2023-06-14T08:45:31;30.00;1.00
48912;DHT22;34722;52.108;5.044;2023-06-14T08:48:00;30.70;1.00
48912;DHT22;34722;52.108;5.044;2023-06-14T08:50:30;31.80;1.00
48912;DHT22;34722;52.108;5.044;2023-06-14T08:53:02;30.50;1.00
48912;DHT22;34722;52.108;5.044;2023-06-14T08:55:29;30.30;1.00
48912;DHT22;34722;52.108;5.044;2023-06-14T08:58:01;30.00;1.00
48912;DHT22;34722;52.108;5.044;2023-06-14T09:00:28;30.80;1.00
48912;DHT22;34722;52.108;5.044;2023-06-14T09:03:01;31.30;1.00
48912;DHT22;34722;52.108;5.044;2023-06-14T09:05:31;31.50;1.00
48912;DHT22;34722;52.108;5.044;2023-06-14T09:07:58;31.40;1.00
48912;DHT22;34722;52.108;5.044;2023-06-14T09:10:37;31.00;1.00
48912;DHT22;34722;52.108;5.044;2023-06-14T09:13:03;30.40;1.00
48912;DHT22;34722;52.108;5.044;2023-06-14T09:15:35;31.10;1.00
48912;DHT22;34722;52.108;5.044;2023-06-14T09:18:03;31.20;1.00
48912;DHT22;34722;52.108;5.044;2023-06-14T09:20:38;32.10;1.00
48912;DHT22;34722;52.108;5.044;2023-06-14T09:23:24;32.40;1.00
48912;DHT22;34722;52.108;5.044;2023-06-14T09:25:55;31.90;1.00
48912;DHT22;34722;52.108;5.044;2023-06-14T09:28:27;31.10;1.00
48912;DHT22;34722;52.108;5.044;2023-06-14T09:31:03;31.90;1.00
48912;DHT22;34722;52.108;5.044;2023-06-14T09:33:35;31.90;1.00
48912;DHT22;34722;52.108;5.044;2023-06-14T09:36:10;32.70;1.00
48912;DHT22;34722;52.108;5.044;2023-06-14T09:38:57;33.40;1.00
48912;DHT22;34722;52.108;5.044;2023-06-14T09:41:50;32.10;1.00
48912;DHT22;34722;52.108;5.044;2023-06-14T09:44:16;31.70;1.00
48912;DHT22;34722;52.108;5.044;2023-06-14T09:46:46;31.00;1.00
48912;DHT22;34722;52.108;5.044;2023-06-14T09:49:14;31.00;1.00
48912;DHT22;34722;52.108;5.044;2023-06-14T09:51:51;31.10;1.00
48912;DHT22;34722;52.108;5.044;2023-06-14T09:54:22;31.30;1.00
48912;DHT22;34722;52.108;5.044;2023-06-14T09:56:51;31.10;1.00
48912;DHT22;34722;52.108;5.044;2023-06-14T09:59:26;31.20;1.00
48912;DHT22;34722;52.108;5.044;2023-06-14T10:01:58;31.30;1.00
48912;DHT22;34722;52.108;5.044;2023-06-14T10:04:28;30.70;1.00
48912;DHT22;34722;52.108;5.044;2023-06-14T10:07:04;30.10;1.00
48912;DHT22;34722;52.108;5.044;2023-06-14T10:09:32;31.20;1.00
48912;DHT22;34722;52.108;5.044;2023-06-14T10:15:33;32.30;1.00
48912;DHT22;34722;52.108;5.044;2023-06-14T10:18:31;33.10;1.00
48912;DHT22;34722;52.108;5.044;2023-06-14T10:21:28;33.00;1.00
48912;DHT22;34722;52.108;5.044;2023-06-14T10:24:03;33.10;1.00
48912;DHT22;34722;52.108;5.044;2023-06-14T10:26:31;31.50;1.00
48912;DHT22;34722;52.108;5.044;2023-06-14T10:28:59;30.60;1.00
48912;DHT22;34722;52.108;5.044;2023-06-14T10:31:46;32.00;1.00
48912;DHT22;34722;52.108;5.044;2023-06-14T10:34:24;32.60;1.00
48912;DHT22;34722;52.108;5.044;2023-06-14T10:37:12;32.30;1.00
48912;DHT22;34722;52.108;5.044;2023-06-14T10:39:43;32.60;1.00
48912;DHT22;34722;52.108;5.044;2023-06-14T10:42:15;32.40;1.00
48912;DHT22;34722;52.108;5.044;2023-06-14T10:44:45;32.50;1.00
48912;DHT22;34722;52.108;5.044;2023-06-14T10:47:33;32.20;1.00
48912;DHT22;34722;52.108;5.044;2023-06-14T10:50:08;31.60;1.00
48912;DHT22;34722;52.108;5.044;2023-06-14T10:52:44;30.90;1.00
48912;DHT22;34722;52.108;5.044;2023-06-14T10:55:12;31.60;1.00
48912;DHT22;34722;52.108;5.044;2023-06-14T10:57:45;32.30;1.00
48912;DHT22;34722;52.108;5.044;2023-06-14T11:00:14;32.60;1.00
48912;DHT22;34722;52.108;5.044;2023-06-14T11:10:54;33.90;1.00
48912;DHT22;34722;52.108;5.044;2023-06-14T11:13:25;34.10;1.00
48912;DHT22;34722;52.108;5.044;2023-06-14T11:16:00;33.90;1.00
48912;DHT22;34722;52.108;5.044;2023-06-14T11:18:28;33.90;1.00
48912;DHT22;34722;52.108;5.044;2023-06-14T11:20:57;33.60;1.00
48912;DHT22;34722;52.108;5.044;2023-06-14T11:23:23;33.60;1.00
48912;DHT22;34722;52.108;5.044;2023-06-14T11:26:10;33.40;1.00
48912;DHT22;34722;52.108;5.044;2023-06-14T11:29:06;33.90;1.00
48912;DHT22;34722;52.108;5.044;2023-06-14T11:35:01;34.30;1.00
48912;DHT22;34722;52.108;5.044;2023-06-14T11:37:30;33.70;1.00
48912;DHT22;34722;52.108;5.044;2023-06-14T11:39:59;33.90;1.00
48912;DHT22;34722;52.108;5.044;2023-06-14T11:42:29;33.70;1.00
48912;DHT22;34722;52.108;5.044;2023-06-14T11:44:58;32.50;1.00
48912;DHT22;34722;52.108;5.044;2023-06-14T11:47:34;33.00;1.00
48912;DHT22;34722;52.108;5.044;2023-06-14T11:50:06;32.10;1.00
48912;DHT22;34722;52.108;5.044;2023-06-14T11:52:37;34.00;1.00
48912;DHT22;34722;52.108;5.044;2023-06-14T11:55:20;34.20;1.00
48912;DHT22;34722;52.108;5.044;2023-06-14T11:58:01;33.60;1.00
48912;DHT22;34722;52.108;5.044;2023-06-14T12:00:34;34.20;1.00
48912;DHT22;34722;52.108;5.044;2023-06-14T12:03:04;33.60;1.00
48912;DHT22;34722;52.108;5.044;2023-06-14T12:05:37;32.90;1.00
48912;DHT22;34722;52.108;5.044;2023-06-14T12:08:19;33.40;1.00
48912;DHT22;34722;52.108;5.044;2023-06-14T12:18:46;33.30;1.00
48912;DHT22;34722;52.108;5.044;2023-06-14T12:21:17;33.50;1.00
48912;DHT22;34722;52.108;5.044;2023-06-14T12:24:07;33.90;1.00
48912;DHT22;34722;52.108;5.044;2023-06-14T12:26:44;33.50;1.00
48912;DHT22;34722;52.108;5.044;2023-06-14T12:29:10;32.80;1.00
48912;DHT22;34722;52.108;5.044;2023-06-14T12:31:38;32.50;1.00
48912;DHT22;34722;52.108;5.044;2023-06-14T12:34:11;31.80;1.00
48912;DHT22;34722;52.108;5.044;2023-06-14T12:36:43;31.60;1.00
48912;DHT22;34722;52.108;5.044;2023-06-14T12:42:29;30.10;1.00
48912;DHT22;34722;52.108;5.044;2023-06-14T12:47:54;29.10;1.00
48912;DHT22;34722;52.108;5.044;2023-06-14T12:50:39;29.10;1.00
48912;DHT22;34722;52.108;5.044;2023-06-14T12:53:29;29.20;1.00
48912;DHT22;34722;52.108;5.044;2023-06-14T12:56:01;29.10;1.00
48912;DHT22;34722;52.108;5.044;2023-06-14T12:58:27;29.20;1.00
48912;DHT22;34722;52.108;5.044;2023-06-14T13:00:59;29.30;1.00
48912;DHT22;34722;52.108;5.044;2023-06-14T13:03:27;29.60;1.00
48912;DHT22;34722;52.108;5.044;2023-06-14T13:05:53;29.80;1.00
48912;DHT22;34722;52.108;5.044;2023-06-14T13:08:21;29.50;1.00
48912;DHT22;34722;52.108;5.044;2023-06-14T13:16:13;29.70;1.00
48912;DHT22;34722;52.108;5.044;2023-06-14T13:18:40;29.30;1.00
48912;DHT22;34722;52.108;5.044;2023-06-14T13:23:39;29.90;1.00
48912;DHT22;34722;52.108;5.044;2023-06-14T13:26:12;29.60;1.00
48912;DHT22;34722;52.108;5.044;2023-06-14T13:28:38;29.70;1.00
48912;DHT22;34722;52.108;5.044;2023-06-14T13:31:13;29.60;1.00
48912;DHT22;34722;52.108;5.044;2023-06-14T13:33:39;29.50;1.00
48912;DHT22;34722;52.108;5.044;2023-06-14T13:36:10;29.10;1.00
48912;DHT22;34722;52.108;5.044;2023-06-14T13:38:59;29.00;1.00
48912;DHT22;34722;52.108;5.044;2023-06-14T13:41:28;29.60;1.00
48912;DHT22;34722;52.108;5.044;2023-06-14T13:44:07;29.60;1.00
48912;DHT22;34722;52.108;5.044;2023-06-14T13:47:00;29.20;1.00
48912;DHT22;34722;52.108;5.044;2023-06-14T13:49:29;28.90;1.00
48912;DHT22;34722;52.108;5.044;2023-06-14T13:55:36;28.70;1.00
48912;DHT22;34722;52.108;5.044;2023-06-14T14:01:31;28.70;1.00
48912;DHT22;34722;52.108;5.044;2023-06-14T14:07:29;28.60;1.00
48912;DHT22;34722;52.108;5.044;2023-06-14T14:10:11;28.30;1.00
48912;DHT22;34722;52.108;5.044;2023-06-14T14:12:54;28.30;1.00
48912;DHT22;34722;52.108;5.044;2023-06-14T14:15:26;27.90;1.00
48912;DHT22;34722;52.108;5.044;2023-06-14T14:17:58;28.00;1.00
48912;DHT22;34722;52.108;5.044;2023-06-14T14:20:31;27.90;1.00
48912;DHT22;34722;52.108;5.044;2023-06-14T15:17:53;27.50;1.00
48912;DHT22;34722;52.108;5.044;2023-06-14T15:20:19;27.50;1.00
48912;DHT22;34722;52.108;5.044;2023-06-14T15:22:46;27.30;1.00
48912;DHT22;34722;52.108;5.044;2023-06-14T15:25:18;27.50;1.00
48912;DHT22;34722;52.108;5.044;2023-06-14T15:27:50;27.50;1.00
48912;DHT22;34722;52.108;5.044;2023-06-14T15:30:19;27.10;1.00
48912;DHT22;34722;52.108;5.044;2023-06-14T15:32:49;27.40;1.00
48912;DHT22;34722;52.108;5.044;2023-06-14T15:35:18;27.20;1.00
48912;DHT22;34722;52.108;5.044;2023-06-14T15:37:44;27.20;1.00
48912;DHT22;34722;52.108;5.044;2023-06-14T15:40:10;27.00;1.00
48912;DHT22;34722;52.108;5.044;2023-06-14T15:42:36;27.00;1.00
48912;DHT22;34722;52.108;5.044;2023-06-14T15:45:06;26.80;1.00
48912;DHT22;34722;52.108;5.044;2023-06-14T15:47:32;27.00;1.00
48912;DHT22;34722;52.108;5.044;2023-06-14T15:49:58;26.90;1.00
48912;DHT22;34722;52.108;5.044;2023-06-14T15:52:24;27.00;1.00
48912;DHT22;34722;52.108;5.044;2023-06-14T15:54:53;26.90;1.00
48912;DHT22;34722;52.108;5.044;2023-06-14T15:57:21;26.90;1.00
48912;DHT22;34722;52.108;5.044;2023-06-14T15:59:47;27.20;1.00
48912;DHT22;34722;52.108;5.044;2023-06-14T16:02:16;27.10;1.00
48912;DHT22;34722;52.108;5.044;2023-06-14T16:04:42;27.20;1.00
48912;DHT22;34722;52.108;5.044;2023-06-14T16:07:11;27.10;1.00
48912;DHT22;34722;52.108;5.044;2023-06-14T16:09:40;26.90;1.00
48912;DHT22;34722;52.108;5.044;2023-06-14T16:12:20;26.80;1.00
48912;DHT22;34722;52.108;5.044;2023-06-14T16:14:52;26.70;1.00
48912;DHT22;34722;52.108;5.044;2023-06-14T16:17:23;26.80;1.00
48912;DHT22;34722;52.108;5.044;2023-06-14T16:19:52;26.60;1.00
48912;DHT22;34722;52.108;5.044;2023-06-14T16:22:19;26.70;1.00
48912;DHT22;34722;52.108;5.044;2023-06-14T16:24:47;26.70;1.00
48912;DHT22;34722;52.108;5.044;2023-06-14T16:27:13;26.60;1.00
48912;DHT22;34722;52.108;5.044;2023-06-14T16:29:40;26.50;1.00
48912;DHT22;34722;52.108;5.044;2023-06-14T16:32:07;26.40;1.00
48912;DHT22;34722;52.108;5.044;2023-06-14T16:34:33;26.30;1.00
48912;DHT22;34722;52.108;5.044;2023-06-14T16:37:02;26.40;1.00
48912;DHT22;34722;52.108;5.044;2023-06-14T16:39:28;26.30;1.00
48912;DHT22;34722;52.108;5.044;2023-06-14T16:41:54;26.20;1.00
48912;DHT22;34722;52.108;5.044;2023-06-14T16:44:23;26.20;1.00
48912;DHT22;34722;52.108;5.044;2023-06-14T16:46:52;26.40;1.00
48912;DHT22;34722;52.108;5.044;2023-06-14T16:49:21;26.50;1.00
48912;DHT22;34722;52.108;5.044;2023-06-14T16:51:47;26.50;1.00
48912;DHT22;34722;52.108;5.044;2023-06-14T16:54:20;26.50;1.00
48912;DHT22;34722;52.108;5.044;2023-06-14T16:56:56;26.20;1.00
48912;DHT22;34722;52.108;5.044;2023-06-14T16:59:26;26.30;1.00
48912;DHT22;34722;52.108;5.044;2023-06-14T17:02:07;26.10;1.00
48912;DHT22;34722;52.108;5.044;2023-06-14T17:04:45;26.00;1.00
48912;DHT22;34722;52.108;5.044;2023-06-14T17:07:11;25.90;1.00
48912;DHT22;34722;52.108;5.044;2023-06-14T17:09:46;25.80;1.00
48912;DHT22;34722;52.108;5.044;2023-06-14T17:12:12;25.70;1.00
48912;DHT22;34722;52.108;5.044;2023-06-14T17:14:41;25.60;1.00
48912;DHT22;34722;52.108;5.044;2023-06-14T17:17:11;25.70;1.00
48912;DHT22;34722;52.108;5.044;2023-06-14T17:19:39;25.70;1.00
48912;DHT22;34722;52.108;5.044;2023-06-14T17:22:18;25.70;1.00
48912;DHT22;34722;52.108;5.044;2023-06-14T17:24:53;25.70;1.00
48912;DHT22;34722;52.108;5.044;2023-06-14T17:27:19;25.70;1.00
48912;DHT22;34722;52.108;5.044;2023-06-14T17:29:51;25.60;1.00
48912;DHT22;34722;52.108;5.044;2023-06-14T17:32:22;25.60;1.00
48912;DHT22;34722;52.108;5.044;2023-06-14T17:34:48;25.50;1.00
48912;DHT22;34722;52.108;5.044;2023-06-14T17:37:23;25.50;1.00
48912;DHT22;34722;52.108;5.044;2023-06-14T17:39:53;25.50;1.00
48912;DHT22;34722;52.108;5.044;2023-06-14T17:42:22;25.50;1.00